Observation data for Tulia on 06/14/2019      Previous  Date  Next       Current Mesonet Observations  Soil Data  Daily Summary Page  Observations in Plain Language
KTIS 140500Z 15015KT 23/15 A30 RMK A01 T02300154  RH  065%=      5-min Rain = 0
KTIS 140505Z 15016KT 23/15 A30 RMK A01 T02300153  RH  065%=      5-min Rain = 0
KTIS 140510Z 15015KT 23/15 A30 RMK A01 T02290153  RH  065%=      5-min Rain = 0
KTIS 140515Z 15017KT 23/15 A30 RMK A01 T02280152  RH  065%=      5-min Rain = 0
KTIS 140520Z 15016KT 23/15 A30 RMK A01 T02280152  RH  065%=      5-min Rain = 0
KTIS 140525Z 15015G20KT 23/15 A30 RMK A01 T02270152  RH  066%=      5-min Rain = 0
KTIS 140530Z 15013KT 23/15 A3001 RMK A01 T02260153  RH  066%=      5-min Rain = 0
KTIS 140535Z 15012G18KT 23/15 A3002 RMK A01 T02260152  RH  066%=      5-min Rain = 0
KTIS 140540Z 16003G8KT 23/15 A3005 RMK A01 T02260153  RH  066%=      5-min Rain = 0
KTIS 140545Z 33007KT 23/15 A3008 RMK A01 T02250153  RH  067%=      5-min Rain = 0
KTIS 140550Z 35007KT 22/15 A3009 RMK A01 T02230153  RH  068%=      5-min Rain = 0
KTIS 140555Z 02006KT 23/15 A3009 RMK A01 T02250153  RH  067%=      5-min Rain = 0
KTIS 140600Z 02007KT 23/15 A3009 RMK A01 T02260153  RH  066%=      5-min Rain = 0
KTIS 140605Z 05007KT 23/15 A3009 RMK A01 T02260154  RH  067%=      5-min Rain = 0
KTIS 140610Z 07011KT 22/15 A3008 RMK A01 T02240154  RH  067%=      5-min Rain = 0
KTIS 140615Z 06011KT 22/15 A3008 RMK A01 T02230154  RH  068%=      5-min Rain = 0
KTIS 140620Z 06011G16KT 22/15 A3008 RMK A01 T02230153  RH  068%=      5-min Rain = 0
KTIS 140625Z 07011G17KT 22/15 A3008 RMK A01 T02220153  RH  068%=      5-min Rain = 0
KTIS 140630Z 06015G20KT 21/14 A3008 RMK A01 T02060143  RH  070%=      5-min Rain = 0
KTIS 140635Z 06014G21KT 20/14 A3008 RMK A01 T01950140  RH  074%=      5-min Rain = 0
KTIS 140640Z 05016G21KT 19/13 A3008 RMK A01 T01880134  RH  074%=      5-min Rain = 0
KTIS 140645Z 05017G24KT 18/13 A3009 RMK A01 T01820129  RH  074%=      5-min Rain = 0
KTIS 140650Z 06018KT 17/13 A3008 RMK A01 T01730129  RH  078%=      5-min Rain = 0
KTIS 140655Z 06017G22KT 17/13 A3008 RMK A01 T01700130  RH  081%=      5-min Rain = 0
KTIS 140700Z 07016G21KT 17/13 A3008 RMK A01 T01700130  RH  081%=      5-min Rain = 0
KTIS 140705Z 08015G20KT 17/13 A3007 RMK A01 T01690130  RH  081%=      5-min Rain = 0
KTIS 140710Z 08015G20KT 17/13 A3007 RMK A01 T01680131  RH  082%=      5-min Rain = 0
KTIS 140715Z 08014G19KT 17/13 A3006 RMK A01 T01670130  RH  082%=      5-min Rain = 0
KTIS 140720Z 09013KT 17/13 A3006 RMK A01 T01670129  RH  081%=      5-min Rain = 0
KTIS 140725Z 08012KT 17/13 A3006 RMK A01 T01680129  RH  081%=      5-min Rain = 0
KTIS 140730Z 09012KT 17/13 A3005 RMK A01 T01690128  RH  080%=      5-min Rain = 0
KTIS 140735Z 09013G18KT 17/13 A3005 RMK A01 T01680127  RH  080%=      5-min Rain = 0
KTIS 140740Z 10011G16KT 17/13 A3005 RMK A01 T01670127  RH  081%=      5-min Rain = 0
KTIS 140745Z 11012KT 17/13 A3004 RMK A01 T01650127  RH  081%=      5-min Rain = 0
KTIS 140750Z 11012G17KT 16/13 A3003 RMK A01 T01640127  RH  082%=      5-min Rain = 0
KTIS 140755Z 11011KT 16/13 A3004 RMK A01 T01640126  RH  081%=      5-min Rain = 0
KTIS 140800Z 11010KT 17/13 A3004 RMK A01 T01650127  RH  082%=      5-min Rain = 0
KTIS 140805Z 11008KT 17/13 A3004 RMK A01 T01660127  RH  081%=      5-min Rain = 0
KTIS 140810Z 09008KT 17/13 A3005 RMK A01 T01670128  RH  081%=      5-min Rain = 0
KTIS 140815Z 08008KT 17/13 A3006 RMK A01 T01680128  RH  081%=      5-min Rain = 0
KTIS 140820Z 07009KT 17/13 A3006 RMK A01 T01690129  RH  080%=      5-min Rain = 0
KTIS 140825Z 07008KT 17/13 A3006 RMK A01 T01690130  RH  081%=      5-min Rain = 0
KTIS 140830Z 07009KT 17/13 A3005 RMK A01 T01710131  RH  080%=      5-min Rain = 0
KTIS 140835Z 07012KT 17/13 A3005 RMK A01 T01700130  RH  081%=      5-min Rain = 0
KTIS 140840Z 09010KT 17/13 A3004 RMK A01 T01670131  RH  082%=      5-min Rain = 0
KTIS 140845Z 09008KT 17/13 A3004 RMK A01 T01660131  RH  083%=      5-min Rain = 0
KTIS 140850Z 07007KT 17/13 A3005 RMK A01 T01650131  RH  084%=      5-min Rain = 0
KTIS 140855Z 08007KT 17/13 A3005 RMK A01 T01650132  RH  084%=      5-min Rain = 0
KTIS 140900Z 10007KT 17/13 A3004 RMK A01 T01650132  RH  084%=      5-min Rain = 0
KTIS 140905Z 12009KT 17/13 A3003 RMK A01 T01660133  RH  084%=      5-min Rain = 0
KTIS 140910Z 13010KT 17/13 A3002 RMK A01 T01670133  RH  084%=      5-min Rain = 0
KTIS 140915Z 13012G18KT 17/13 A30 RMK A01 T01670134  RH  084%=      5-min Rain = 0
KTIS 140920Z 13015KT 17/13 A30 RMK A01 T01690134  RH  083%=      5-min Rain = 0
KTIS 140925Z 13016KT 17/14 A2998 RMK A01 T01690135  RH  083%=      5-min Rain = 0
KTIS 140930Z 13013G18KT 17/14 A2998 RMK A01 T01690135  RH  084%=      5-min Rain = 0
KTIS 140935Z 14017G24KT 17/14 A2997 RMK A01 T01700135  RH  083%=      5-min Rain = 0
KTIS 140940Z 14016G21KT 17/14 A2997 RMK A01 T01700135  RH  083%=      5-min Rain = 0
KTIS 140945Z 14017G24KT 17/13 A2997 RMK A01 T01740133  RH  080%=      5-min Rain = 0
KTIS 140950Z 15016G21KT 17/13 A2997 RMK A01 T01730134  RH  081%=      5-min Rain = 0
KTIS 140955Z 15015G21KT 18/13 A2997 RMK A01 T01750134  RH  080%=      5-min Rain = 0
KTIS 141000Z 14017KT 18/14 A2996 RMK A01 T01800135  RH  078%=      5-min Rain = 0
KTIS 141005Z 13018G23KT 18/14 A2994 RMK A01 T01820136  RH  077%=      5-min Rain = 0
KTIS 141010Z 13016KT 18/14 A2995 RMK A01 T01810135  RH  078%=      5-min Rain = 0
KTIS 141015Z 08013G21KT 19/14 A2995 RMK A01 T01890143  RH  078%=      5-min Rain = 0
KTIS 141020Z 10015G20KT 19/14 A2995 RMK A01 T01900141  RH  076%=      5-min Rain = 0
KTIS 141025Z 10013KT 18/14 A2996 RMK A01 T01840138  RH  078%=      5-min Rain = 0
KTIS 141030Z 11011G17KT 18/14 A2996 RMK A01 T01830139  RH  079%=      5-min Rain = 0
KTIS 141035Z 11010KT 18/14 A2996 RMK A01 T01820139  RH  079%=      5-min Rain = 0
KTIS 141040Z 11010KT 18/14 A2996 RMK A01 T01800139  RH  080%=      5-min Rain = 0
KTIS 141045Z 12009KT 18/14 A2996 RMK A01 T01780139  RH  081%=      5-min Rain = 0
KTIS 141050Z 13010KT 18/14 A2996 RMK A01 T01790139  RH  081%=      5-min Rain = 0
KTIS 141055Z 14012KT 18/14 A2996 RMK A01 T01790139  RH  081%=      5-min Rain = 0
KTIS 141100Z 14013G18KT 18/14 A2995 RMK A01 T01790138  RH  081%=      5-min Rain = 0
KTIS 141105Z 14013G18KT 18/14 A2995 RMK A01 T01780136  RH  080%=      5-min Rain = 0
KTIS 141110Z 14014KT 18/13 A2995 RMK A01 T01750134  RH  080%=      5-min Rain = 0
KTIS 141115Z 15015G22KT 17/13 A2995 RMK A01 T01730134  RH  081%=      5-min Rain = 0
KTIS 141120Z 15014G19KT 17/14 A2995 RMK A01 T01720135  RH  082%=      5-min Rain = 0
KTIS 141125Z 15015KT 17/14 A2995 RMK A01 T01730136  RH  082%=      5-min Rain = 0
KTIS 141130Z 15014KT 17/14 A2995 RMK A01 T01740139  RH  083%=      5-min Rain = 0
KTIS 141135Z 16015KT 18/14 A2995 RMK A01 T01760141  RH  084%=      5-min Rain = 0
KTIS 141140Z 16014KT 18/14 A2994 RMK A01 T01770143  RH  084%=      5-min Rain = 0
KTIS 141145Z 16015KT 18/15 A2994 RMK A01 T01780145  RH  085%=      5-min Rain = 0
KTIS 141150Z 16015G20KT 18/15 A2994 RMK A01 T01790146  RH  085%=      5-min Rain = 0
KTIS 141155Z 16014KT 18/15 A2994 RMK A01 T01790147  RH  085%=      5-min Rain = 0
KTIS 141200Z 16013G18KT 18/15 A2994 RMK A01 T01790148  RH  086%=      5-min Rain = 0
KTIS 141205Z 16014KT 18/15 A2994 RMK A01 T01800149  RH  086%=      5-min Rain = 0
KTIS 141210Z 16016KT 18/15 A2994 RMK A01 T01810150  RH  086%=      5-min Rain = 0
KTIS 141215Z 17016KT 18/15 A2994 RMK A01 T01820152  RH  086%=      5-min Rain = 0
KTIS 141220Z 17014G19KT 18/15 A2994 RMK A01 T01840153  RH  086%=      5-min Rain = 0
KTIS 141225Z 17017G23KT 19/16 A2994 RMK A01 T01860155  RH  086%=      5-min Rain = 0
KTIS 141230Z 17017G23KT 19/16 A2994 RMK A01 T01870156  RH  086%=      5-min Rain = 0
KTIS 141235Z 16017G22KT 19/16 A2994 RMK A01 T01880156  RH  086%=      5-min Rain = 0
KTIS 141240Z 17017G23KT 19/16 A2994 RMK A01 T01880157  RH  086%=      5-min Rain = 0
KTIS 141245Z 17016G22KT 19/16 A2993 RMK A01 T01890157  RH  086%=      5-min Rain = 0
KTIS 141250Z 17015G24KT 19/16 A2994 RMK A01 T01900158  RH  086%=      5-min Rain = 0
KTIS 141255Z 18016KT 19/16 A2994 RMK A01 T01910158  RH  085%=      5-min Rain = 0
KTIS 141300Z 17016G21KT 19/16 A2994 RMK A01 T01930159  RH  084%=      5-min Rain = 0
KTIS 141305Z 17018KT 20/16 A2994 RMK A01 T01970159  RH  083%=      5-min Rain = 0
KTIS 141310Z 17017G24KT 20/16 A2994 RMK A01 T02000160  RH  081%=      5-min Rain = 0
KTIS 141315Z 18018G24KT 20/16 A2994 RMK A01 T02030159  RH  080%=      5-min Rain = 0
KTIS 141320Z 18021G26KT 21/16 A2994 RMK A01 T02070159  RH  078%=      5-min Rain = 0
KTIS 141325Z 18018G24KT 21/16 A2994 RMK A01 T02100159  RH  076%=      5-min Rain = 0
KTIS 141330Z 18020G25KT 21/16 A2995 RMK A01 T02100158  RH  076%=      5-min Rain = 0
KTIS 141335Z 18020G25KT 21/16 A2995 RMK A01 T02120157  RH  074%=      5-min Rain = 0
KTIS 141340Z 18019G24KT 21/16 A2995 RMK A01 T02120157  RH  074%=      5-min Rain = 0
KTIS 141345Z 18017G24KT 21/16 A2995 RMK A01 T02140157  RH  073%=      5-min Rain = 0
KTIS 141350Z 18018G23KT 22/16 A2995 RMK A01 T02150157  RH  073%=      5-min Rain = 0
KTIS 141355Z 19019G27KT 22/16 A2995 RMK A01 T02180157  RH  071%=      5-min Rain = 0
KTIS 141400Z 19021G28KT 22/16 A2995 RMK A01 T02190155  RH  070%=      5-min Rain = 0
KTIS 141405Z 18020G26KT 22/15 A2994 RMK A01 T02190154  RH  069%=      5-min Rain = 0
KTIS 141410Z 19019G26KT 22/16 A2994 RMK A01 T02220155  RH  069%=      5-min Rain = 0
KTIS 141415Z 19020G27KT 22/15 A2994 RMK A01 T02220154  RH  068%=      5-min Rain = 0
KTIS 141420Z 19019G25KT 22/15 A2994 RMK A01 T02230154  RH  068%=      5-min Rain = 0
KTIS 141425Z 19017G23KT 23/16 A2994 RMK A01 T02260155  RH  067%=      5-min Rain = 0
KTIS 141430Z 19017G25KT 23/15 A2994 RMK A01 T02270154  RH  066%=      5-min Rain = 0
KTIS 141435Z 19019G25KT 24/15 A2994 RMK A01 T02350149  RH  061%=      5-min Rain = 0
KTIS 141440Z 20020G26KT 24/15 A2994 RMK A01 T02380148  RH  060%=      5-min Rain = 0
KTIS 141445Z 19019G26KT 24/15 A2994 RMK A01 T02400149  RH  059%=      5-min Rain = 0
KTIS 141450Z 20019G25KT 24/15 A2994 RMK A01 T02390149  RH  060%=      5-min Rain = 0
KTIS 141455Z 20019G26KT 25/15 A2993 RMK A01 T02460149  RH  057%=      5-min Rain = 0
KTIS 141500Z 20020G26KT 25/15 A2993 RMK A01 T02490148  RH  056%=      5-min Rain = 0
KTIS 141505Z 20020G25KT 25/15 A2993 RMK A01 T02520145  RH  054%=      5-min Rain = 0
KTIS 141510Z 20019G25KT 26/15 A2992 RMK A01 T02590145  RH  052%=      5-min Rain = 0
KTIS 141515Z 21021G28KT 26/14 A2992 RMK A01 T02610138  RH  049%=      5-min Rain = 0
KTIS 141520Z 21020G26KT 26/14 A2992 RMK A01 T02620136  RH  048%=      5-min Rain = 0
KTIS 141525Z 21020G25KT 26/13 A2992 RMK A01 T02630132  RH  046%=      5-min Rain = 0
KTIS 141530Z 21018G28KT 27/14 A2992 RMK A01 T02680136  RH  046%=      5-min Rain = 0
KTIS 141535Z 21020G28KT 27/13 A2992 RMK A01 T02660133  RH  046%=      5-min Rain = 0
KTIS 141540Z 22017G23KT 27/14 A2992 RMK A01 T02730136  RH  045%=      5-min Rain = 0
KTIS 141545Z 22018G24KT 28/14 A2991 RMK A01 T02750135  RH  044%=      5-min Rain = 0
KTIS 141550Z 21021G28KT 28/13 A2991 RMK A01 T02760133  RH  043%=      5-min Rain = 0
KTIS 141555Z 22017G22KT 28/13 A2991 RMK A01 T02810134  RH  042%=      5-min Rain = 0
KTIS 141600Z 22019G26KT 28/13 A2991 RMK A01 T02830132  RH  041%=      5-min Rain = 0
KTIS 141605Z 22018KT 28/13 A299 RMK A01 T02840133  RH  041%=      5-min Rain = 0
KTIS 141610Z 22017G23KT 29/14 A299 RMK A01 T02870135  RH  041%=      5-min Rain = 0
KTIS 141615Z 22018G24KT 29/14 A299 RMK A01 T02900135  RH  040%=      5-min Rain = 0
KTIS 141620Z 22019G25KT 29/13 A299 RMK A01 T02880134  RH  040%=      5-min Rain = 0
KTIS 141625Z 22019G25KT 29/13 A299 RMK A01 T02890132  RH  040%=      5-min Rain = 0
KTIS 141630Z 22020G26KT 29/13 A299 RMK A01 T02900130  RH  039%=      5-min Rain = 0
KTIS 141635Z 22020G28KT 29/13 A299 RMK A01 T02890128  RH  039%=      5-min Rain = 0
KTIS 141640Z 23018G23KT 29/13 A2989 RMK A01 T02890129  RH  039%=      5-min Rain = 0
KTIS 141645Z 22019G24KT 29/13 A299 RMK A01 T02880128  RH  039%=      5-min Rain = 0
KTIS 141650Z 22019G25KT 29/13 A299 RMK A01 T02880128  RH  039%=      5-min Rain = 0
KTIS 141655Z 22018G26KT 29/13 A299 RMK A01 T02900128  RH  038%=      5-min Rain = 0
KTIS 141700Z 22018G23KT 29/13 A299 RMK A01 T02930128  RH  038%=      5-min Rain = 0
KTIS 141705Z 22016G22KT 29/13 A299 RMK A01 T02930129  RH  038%=      5-min Rain = 0
KTIS 141710Z 21019G24KT 29/13 A2989 RMK A01 T02920128  RH  038%=      5-min Rain = 0
KTIS 141715Z 22017G24KT 30/13 A2989 RMK A01 T02960132  RH  038%=      5-min Rain = 0
KTIS 141720Z 21016G21KT 30/14 A2989 RMK A01 T03010136  RH  038%=      5-min Rain = 0
KTIS 141725Z 21016G24KT 30/14 A2989 RMK A01 T02980135  RH  038%=      5-min Rain = 0
KTIS 141730Z 21016G23KT 30/14 A2989 RMK A01 T02970135  RH  039%=      5-min Rain = 0
KTIS 141735Z 22015G21KT 30/14 A2989 RMK A01 T03000135  RH  038%=      5-min Rain = 0
KTIS 141740Z 22016G21KT 30/13 A2989 RMK A01 T03000131  RH  037%=      5-min Rain = 0
KTIS 141745Z 22015G21KT 30/13 A2989 RMK A01 T03010128  RH  036%=      5-min Rain = 0
KTIS 141750Z 22012G17KT 31/13 A2988 RMK A01 T03130132  RH  035%=      5-min Rain = 0
KTIS 141755Z 22013G19KT 32/13 A2988 RMK A01 T03180130  RH  033%=      5-min Rain = 0
KTIS 141800Z 21013G20KT 32/13 A2987 RMK A01 T03180128  RH  033%=      5-min Rain = 0
KTIS 141805Z 23016G25KT 33/12 A2987 RMK A01 T03270117  RH  029%=      5-min Rain = 0
KTIS 141810Z 24013G20KT 33/12 A2987 RMK A01 T03330116  RH  028%=      5-min Rain = 0
KTIS 141815Z 23016G21KT 34/11 A2987 RMK A01 T03400108  RH  025%=      5-min Rain = 0
KTIS 141820Z 24016G21KT 34/11 A2987 RMK A01 T03420108  RH  025%=      5-min Rain = 0
KTIS 141825Z 23016G22KT 34/11 A2987 RMK A01 T03400105  RH  025%=      5-min Rain = 0
KTIS 141830Z 23015G26KT 34/10 A2986 RMK A01 T03400103  RH  024%=      5-min Rain = 0
KTIS 141835Z 24018G25KT 34/09 A2986 RMK A01 T03410093  RH  023%=      5-min Rain = 0
KTIS 141840Z 25016G22KT 34/09 A2986 RMK A01 T03390091  RH  023%=      5-min Rain = 0
KTIS 141845Z 23014G23KT 34/09 A2986 RMK A01 T03390091  RH  023%=      5-min Rain = 0
KTIS 141850Z 25014G19KT 34/09 A2985 RMK A01 T03410093  RH  022%=      5-min Rain = 0
KTIS 141855Z 25013G20KT 34/09 A2985 RMK A01 T03430086  RH  021%=      5-min Rain = 0
KTIS 141900Z 24014G19KT 34/08 A2985 RMK A01 T03440084  RH  021%=      5-min Rain = 0
KTIS 141905Z 22016G23KT 35/09 A2985 RMK A01 T03500088  RH  021%=      5-min Rain = 0
KTIS 141910Z 23016G21KT 35/09 A2985 RMK A01 T03500085  RH  020%=      5-min Rain = 0
KTIS 141915Z 24014G19KT 35/08 A2984 RMK A01 T03540078  RH  019%=      5-min Rain = 0
KTIS 141920Z 23011G16KT 36/08 A2984 RMK A01 T03580083  RH  019%=      5-min Rain = 0
KTIS 141925Z 24013G19KT 36/08 A2984 RMK A01 T03560078  RH  019%=      5-min Rain = 0
KTIS 141930Z 23010KT 36/08 A2984 RMK A01 T03560084  RH  020%=      5-min Rain = 0
KTIS 141935Z 24015G23KT 36/09 A2984 RMK A01 T03620089  RH  020%=      5-min Rain = 0
KTIS 141940Z 23013G20KT 36/07 A2984 RMK A01 T03600072  RH  017%=      5-min Rain = 0
KTIS 141945Z 24013KT 36/07 A2984 RMK A01 T03570069  RH  017%=      5-min Rain = 0
KTIS 141950Z 22010G16KT 36/08 A2984 RMK A01 T03560084  RH  020%=      5-min Rain = 0
KTIS 141955Z 22012G17KT 36/09 A2984 RMK A01 T03560089  RH  020%=      5-min Rain = 0
KTIS 142000Z 22011G18KT 35/08 A2984 RMK A01 T03520082  RH  020%=      5-min Rain = 0
KTIS 142005Z 25009G15KT 35/06 A2984 RMK A01 T03520064  RH  018%=      5-min Rain = 0
KTIS 142010Z 25010G17KT 36/05 A2983 RMK A01 T03550053  RH  016%=      5-min Rain = 0
KTIS 142015Z 21019G25KT 35/12 A2983 RMK A01 T03530115  RH  025%=      5-min Rain = 0
KTIS 142020Z 20021G26KT 35/12 A2983 RMK A01 T03540121  RH  026%=      5-min Rain = 0
KTIS 142025Z 19019G25KT 34/12 A2983 RMK A01 T03430121  RH  027%=      5-min Rain = 0
KTIS 142030Z 19019G25KT 33/12 A2983 RMK A01 T03340123  RH  029%=      5-min Rain = 0
KTIS 142035Z 18016G21KT 34/12 A2983 RMK A01 T03350124  RH  029%=      5-min Rain = 0
KTIS 142040Z 18019G25KT 35/13 A2982 RMK A01 T03500129  RH  028%=      5-min Rain = 0
KTIS 142045Z 18021G30KT 36/12 A2982 RMK A01 T03570123  RH  025%=      5-min Rain = 0
KTIS 142050Z 20021G27KT 36/12 A2982 RMK A01 T03590117  RH  024%=      5-min Rain = 0
KTIS 142055Z 19021G27KT 36/12 A2982 RMK A01 T03550116  RH  025%=      5-min Rain = 0
KTIS 142100Z 18020G25KT 35/12 A2982 RMK A01 T03520124  RH  026%=      5-min Rain = 0
KTIS 142105Z 19018G25KT 34/12 A2982 RMK A01 T03430116  RH  026%=      5-min Rain = 0
KTIS 142110Z 19016G23KT 34/11 A2981 RMK A01 T03390110  RH  026%=      5-min Rain = 0
KTIS 142115Z 19016G23KT 34/10 A2981 RMK A01 T03370103  RH  025%=      5-min Rain = 0
KTIS 142120Z 18019G24KT 34/10 A2981 RMK A01 T03350100  RH  025%=      5-min Rain = 0
KTIS 142125Z 18017G23KT 33/10 A2981 RMK A01 T03330098  RH  024%=      5-min Rain = 0
KTIS 142130Z 19014G21KT 33/11 A2981 RMK A01 T03300107  RH  027%=      5-min Rain = 0
KTIS 142135Z 19017G24KT 32/11 A2981 RMK A01 T03180110  RH  029%=      5-min Rain = 0
KTIS 142140Z 22015G21KT 32/11 A2982 RMK A01 T03180113  RH  030%=      5-min Rain = 0
KTIS 142145Z 21004G10KT 31/13 A2982 RMK A01 T03060129  RH  035%=      5-min Rain = 0
KTIS 142150Z 18010G15KT 30/13 A2982 RMK A01 T03030132  RH  037%=      5-min Rain = 0
KTIS 142155Z 18011G18KT 30/13 A2981 RMK A01 T03040126  RH  035%=      5-min Rain = 0
KTIS 142200Z 18014KT 31/12 A2981 RMK A01 T03100116  RH  032%=      5-min Rain = 0
KTIS 142205Z 19013G19KT 31/11 A298 RMK A01 T03120113  RH  030%=      5-min Rain = 0
KTIS 142210Z 20015G21KT 31/11 A298 RMK A01 T03120111  RH  030%=      5-min Rain = 0
KTIS 142215Z 19013KT 32/10 A2981 RMK A01 T03160096  RH  026%=      5-min Rain = 0
KTIS 142220Z 20009KT 32/10 A2981 RMK A01 T03180101  RH  027%=      5-min Rain = 0
KTIS 142225Z 19008KT 32/11 A2981 RMK A01 T03150107  RH  029%=      5-min Rain = 0
KTIS 142230Z 18009KT 31/12 A298 RMK A01 T03120118  RH  032%=      5-min Rain = 0
KTIS 142235Z 19012G18KT 31/11 A298 RMK A01 T03140111  RH  030%=      5-min Rain = 0
KTIS 142240Z 20012G17KT 32/11 A298 RMK A01 T03170110  RH  029%=      5-min Rain = 0
KTIS 142245Z 20014KT 32/11 A298 RMK A01 T03190107  RH  028%=      5-min Rain = 0
KTIS 142250Z 19015KT 32/10 A2979 RMK A01 T03210102  RH  027%=      5-min Rain = 0
KTIS 142255Z 20015KT 32/10 A2979 RMK A01 T03210104  RH  027%=      5-min Rain = 0
KTIS 142300Z 21015KT 32/10 A2979 RMK A01 T03220098  RH  026%=      5-min Rain = 0
KTIS 142305Z 21013G18KT 32/10 A2979 RMK A01 T03230099  RH  026%=      5-min Rain = 0
KTIS 142310Z 20015G24KT 32/10 A2979 RMK A01 T03220097  RH  026%=      5-min Rain = 0
KTIS 142315Z 21015G21KT 33/09 A2979 RMK A01 T03280093  RH  024%=      5-min Rain = 0
KTIS 142320Z 21012KT 33/10 A2979 RMK A01 T03250101  RH  026%=      5-min Rain = 0
KTIS 142325Z 20012KT 33/10 A2978 RMK A01 T03250103  RH  027%=      5-min Rain = 0
KTIS 142330Z 20009KT 32/11 A2978 RMK A01 T03240110  RH  028%=      5-min Rain = 0
KTIS 142335Z 19009G14KT 33/11 A2978 RMK A01 T03260108  RH  027%=      5-min Rain = 0
KTIS 142340Z 19011KT 33/11 A2978 RMK A01 T03320108  RH  026%=      5-min Rain = 0
KTIS 142345Z 20009G14KT 33/11 A2978 RMK A01 T03340109  RH  026%=      5-min Rain = 0
KTIS 142350Z 20011G16KT 33/10 A2978 RMK A01 T03310101  RH  025%=      5-min Rain = 0
KTIS 142355Z 19009KT 33/11 A2977 RMK A01 T03280105  RH  026%=      5-min Rain = 0
KTIS 150000Z 19011KT 33/10 A2977 RMK A01 T03250100  RH  026%=      5-min Rain = 0
KTIS 150005Z 19012G17KT 32/10 A2977 RMK A01 T03240099  RH  026%=      5-min Rain = 0
KTIS 150010Z 19013G18KT 33/09 A2977 RMK A01 T03280092  RH  024%=      5-min Rain = 0
KTIS 150015Z 19012G18KT 33/10 A2977 RMK A01 T03300095  RH  024%=      5-min Rain = 0
KTIS 150020Z 18012KT 33/11 A2977 RMK A01 T03260105  RH  027%=      5-min Rain = 0
KTIS 150025Z 18012KT 32/12 A2977 RMK A01 T03240120  RH  030%=      5-min Rain = 0
KTIS 150030Z 18013KT 32/13 A2977 RMK A01 T03230126  RH  031%=      5-min Rain = 0
KTIS 150035Z 18014KT 33/13 A2977 RMK A01 T03260129  RH  031%=      5-min Rain = 0
KTIS 150040Z 18016KT 33/12 A2977 RMK A01 T03260123  RH  030%=      5-min Rain = 0
KTIS 150045Z 19014G19KT 32/12 A2978 RMK A01 T03220120  RH  030%=      5-min Rain = 0
KTIS 150050Z 18014G19KT 32/12 A2978 RMK A01 T03180115  RH  030%=      5-min Rain = 0
KTIS 150055Z 20018G26KT 32/10 A2978 RMK A01 T03180103  RH  027%=      5-min Rain = 0
KTIS 150100Z 20022G28KT 31/09 A2978 RMK A01 T03140090  RH  026%=      5-min Rain = 0
KTIS 150105Z 20020G27KT 31/09 A2978 RMK A01 T03100089  RH  026%=      5-min Rain = 0
KTIS 150110Z 20019G25KT 31/09 A2978 RMK A01 T03050094  RH  028%=      5-min Rain = 0
KTIS 150115Z 19019G26KT 30/10 A2978 RMK A01 T03020099  RH  029%=      5-min Rain = 0
KTIS 150120Z 19018KT 30/10 A2978 RMK A01 T03010104  RH  030%=      5-min Rain = 0
KTIS 150125Z 19018G23KT 30/11 A2978 RMK A01 T03010105  RH  031%=      5-min Rain = 0
KTIS 150130Z 19016G21KT 30/10 A2978 RMK A01 T03000103  RH  030%=      5-min Rain = 0
KTIS 150135Z 19015G20KT 30/10 A2977 RMK A01 T03000100  RH  030%=      5-min Rain = 0
KTIS 150140Z 19016G21KT 30/09 A2977 RMK A01 T03000094  RH  029%=      5-min Rain = 0
KTIS 150145Z 20018KT 30/09 A2977 RMK A01 T03010086  RH  027%=      5-min Rain = 0
KTIS 150150Z 19017G23KT 30/08 A2977 RMK A01 T02990082  RH  027%=      5-min Rain = 0
KTIS 150155Z 19015KT 30/08 A2977 RMK A01 T02950081  RH  027%=      5-min Rain = 0
KTIS 150200Z 19014KT 29/08 A2977 RMK A01 T02920078  RH  027%=      5-min Rain = 0
KTIS 150205Z 20012KT 29/07 A2977 RMK A01 T02900074  RH  027%=      5-min Rain = 0
KTIS 150210Z 19012KT 29/07 A2977 RMK A01 T02860071  RH  026%=      5-min Rain = 0
KTIS 150215Z 19012KT 29/07 A2977 RMK A01 T02860065  RH  025%=      5-min Rain = 0
KTIS 150220Z 19013G20KT 29/06 A2977 RMK A01 T02850060  RH  025%=      5-min Rain = 0
KTIS 150225Z 19012KT 29/06 A2977 RMK A01 T02850059  RH  024%=      5-min Rain = 0
KTIS 150230Z 19012KT 28/06 A2977 RMK A01 T02810062  RH  026%=      5-min Rain = 0
KTIS 150235Z 19012KT 28/07 A2977 RMK A01 T02760065  RH  027%=      5-min Rain = 0
KTIS 150240Z 18012KT 27/07 A2977 RMK A01 T02730066  RH  028%=      5-min Rain = 0
KTIS 150245Z 18011KT 27/07 A2978 RMK A01 T02700066  RH  028%=      5-min Rain = 0
KTIS 150250Z 18012KT 27/07 A2978 RMK A01 T02670065  RH  028%=      5-min Rain = 0
KTIS 150255Z 18013KT 27/06 A2978 RMK A01 T02670062  RH  028%=      5-min Rain = 0
KTIS 150300Z 17015KT 27/06 A2978 RMK A01 T02700056  RH  026%=      5-min Rain = 0
KTIS 150305Z 17015G20KT 27/05 A2978 RMK A01 T02740054  RH  025%=      5-min Rain = 0
KTIS 150310Z 17015KT 27/06 A2978 RMK A01 T02740057  RH  026%=      5-min Rain = 0
KTIS 150315Z 17015KT 27/06 A2979 RMK A01 T02730058  RH  026%=      5-min Rain = 0
KTIS 150320Z 17016KT 27/06 A2979 RMK A01 T02730056  RH  026%=      5-min Rain = 0
KTIS 150325Z 17017KT 27/06 A298 RMK A01 T02730055  RH  026%=      5-min Rain = 0
KTIS 150330Z 16018G24KT 27/06 A298 RMK A01 T02700061  RH  027%=      5-min Rain = 0
KTIS 150335Z 17020G27KT 27/08 A2981 RMK A01 T02720081  RH  031%=      5-min Rain = 0
KTIS 150340Z 17021G29KT 27/11 A2981 RMK A01 T02730109  RH  037%=      5-min Rain = 0
KTIS 150345Z 17023G30KT 28/13 A2981 RMK A01 T02770133  RH  043%=      5-min Rain = 0
KTIS 150350Z 17025G31KT 28/14 A2981 RMK A01 T02780144  RH  046%=      5-min Rain = 0
KTIS 150355Z 17024G30KT 28/15 A2982 RMK A01 T02780149  RH  047%=      5-min Rain = 0
KTIS 150400Z 17024G31KT 28/15 A2982 RMK A01 T02770152  RH  048%=      5-min Rain = 0
KTIS 150405Z 16021G31KT 28/15 A2982 RMK A01 T02750152  RH  049%=      5-min Rain = 0
KTIS 150410Z 17019G24KT 27/15 A2983 RMK A01 T02710151  RH  050%=      5-min Rain = 0
KTIS 150415Z 17019G24KT 27/15 A2983 RMK A01 T02690151  RH  051%=      5-min Rain = 0
KTIS 150420Z 17019G24KT 27/15 A2982 RMK A01 T02680154  RH  052%=      5-min Rain = 0
KTIS 150425Z 17019G24KT 27/16 A2982 RMK A01 T02670156  RH  053%=      5-min Rain = 0
KTIS 150430Z 17018G23KT 27/16 A2982 RMK A01 T02650157  RH  054%=      5-min Rain = 0
KTIS 150435Z 17018G23KT 26/16 A2982 RMK A01 T02630159  RH  055%=      5-min Rain = 0
KTIS 150440Z 17019G24KT 26/16 A2982 RMK A01 T02620160  RH  056%=      5-min Rain = 0
KTIS 150445Z 17019G24KT 26/16 A2982 RMK A01 T02600160  RH  057%=      5-min Rain = 0
KTIS 150450Z 17018KT 26/16 A2982 RMK A01 T02580162  RH  058%=      5-min Rain = 0
KTIS 150455Z 17017G22KT 26/16 A2983 RMK A01 T02570164  RH  059%=      5-min Rain = 0

Page generated in 0.0097 seconds.